sensor_id;sensor_type;location;lat;lon;timestamp;P1;durP1;ratioP1;P2;durP2;ratioP2
53411;SDS011;39307;52.870;13.660;2023-06-22T00:00:42;11.57;;;9.90;;
53411;SDS011;39307;52.870;13.660;2023-06-22T00:03:09;11.85;;;9.68;;
53411;SDS011;39307;52.870;13.660;2023-06-22T00:05:35;11.70;;;9.75;;
53411;SDS011;39307;52.870;13.660;2023-06-22T00:08:04;11.98;;;9.43;;
53411;SDS011;39307;52.870;13.660;2023-06-22T00:10:30;11.18;;;9.57;;
53411;SDS011;39307;52.870;13.660;2023-06-22T00:12:57;11.27;;;9.37;;
53411;SDS011;39307;52.870;13.660;2023-06-22T00:15:23;11.65;;;9.20;;
53411;SDS011;39307;52.870;13.660;2023-06-22T00:17:49;10.90;;;9.30;;
53411;SDS011;39307;52.870;13.660;2023-06-22T00:20:16;12.02;;;9.80;;
53411;SDS011;39307;52.870;13.660;2023-06-22T00:22:42;10.20;;;9.00;;
53411;SDS011;39307;52.870;13.660;2023-06-22T00:25:08;11.27;;;9.27;;
53411;SDS011;39307;52.870;13.660;2023-06-22T00:27:35;13.15;;;9.10;;
53411;SDS011;39307;52.870;13.660;2023-06-22T00:30:01;12.30;;;9.45;;
53411;SDS011;39307;52.870;13.660;2023-06-22T00:32:28;11.30;;;8.93;;
53411;SDS011;39307;52.870;13.660;2023-06-22T00:34:54;10.63;;;8.70;;
53411;SDS011;39307;52.870;13.660;2023-06-22T00:37:21;11.32;;;8.80;;
53411;SDS011;39307;52.870;13.660;2023-06-22T00:39:47;12.05;;;9.48;;
53411;SDS011;39307;52.870;13.660;2023-06-22T00:42:13;10.57;;;8.48;;
53411;SDS011;39307;52.870;13.660;2023-06-22T00:44:39;10.45;;;8.60;;
53411;SDS011;39307;52.870;13.660;2023-06-22T00:47:05;11.73;;;8.57;;
53411;SDS011;39307;52.870;13.660;2023-06-22T00:49:32;10.82;;;8.98;;
53411;SDS011;39307;52.870;13.660;2023-06-22T00:51:58;15.40;;;9.93;;
53411;SDS011;39307;52.870;13.660;2023-06-22T00:54:25;12.38;;;9.60;;
53411;SDS011;39307;52.870;13.660;2023-06-22T00:56:54;12.55;;;10.48;;
53411;SDS011;39307;52.870;13.660;2023-06-22T00:59:20;13.75;;;10.13;;
53411;SDS011;39307;52.870;13.660;2023-06-22T01:01:47;12.98;;;9.85;;
53411;SDS011;39307;52.870;13.660;2023-06-22T01:04:13;12.73;;;10.60;;
53411;SDS011;39307;52.870;13.660;2023-06-22T01:07:03;12.73;;;10.50;;
53411;SDS011;39307;52.870;13.660;2023-06-22T01:09:57;12.73;;;10.60;;
53411;SDS011;39307;52.870;13.660;2023-06-22T01:12:44;13.30;;;10.85;;
53411;SDS011;39307;52.870;13.660;2023-06-22T01:15:21;12.90;;;10.63;;
53411;SDS011;39307;52.870;13.660;2023-06-22T01:18:04;11.98;;;10.18;;
53411;SDS011;39307;52.870;13.660;2023-06-22T01:20:32;13.80;;;10.57;;
53411;SDS011;39307;52.870;13.660;2023-06-22T01:25:47;12.20;;;10.23;;
53411;SDS011;39307;52.870;13.660;2023-06-22T01:28:52;11.50;;;10.00;;
53411;SDS011;39307;52.870;13.660;2023-06-22T01:31:24;13.25;;;10.25;;
53411;SDS011;39307;52.870;13.660;2023-06-22T01:34:02;10.90;;;9.50;;
53411;SDS011;39307;52.870;13.660;2023-06-22T01:36:30;11.38;;;9.80;;
53411;SDS011;39307;52.870;13.660;2023-06-22T01:38:58;11.65;;;9.75;;
53411;SDS011;39307;52.870;13.660;2023-06-22T01:41:26;12.18;;;9.40;;
53411;SDS011;39307;52.870;13.660;2023-06-22T01:43:54;12.48;;;9.48;;
53411;SDS011;39307;52.870;13.660;2023-06-22T01:46:22;12.40;;;9.13;;
53411;SDS011;39307;52.870;13.660;2023-06-22T01:48:49;10.85;;;9.30;;
53411;SDS011;39307;52.870;13.660;2023-06-22T01:51:16;10.93;;;9.45;;
53411;SDS011;39307;52.870;13.660;2023-06-22T01:53:42;11.23;;;9.10;;
53411;SDS011;39307;52.870;13.660;2023-06-22T01:56:08;12.82;;;9.40;;
53411;SDS011;39307;52.870;13.660;2023-06-22T01:58:35;10.73;;;8.95;;
53411;SDS011;39307;52.870;13.660;2023-06-22T02:03:50;11.75;;;9.20;;
53411;SDS011;39307;52.870;13.660;2023-06-22T02:06:34;13.30;;;9.52;;
53411;SDS011;39307;52.870;13.660;2023-06-22T02:09:12;11.98;;;9.10;;
53411;SDS011;39307;52.870;13.660;2023-06-22T02:11:44;9.77;;;8.30;;
53411;SDS011;39307;52.870;13.660;2023-06-22T02:14:12;11.20;;;9.23;;
53411;SDS011;39307;52.870;13.660;2023-06-22T02:16:39;10.38;;;8.80;;
53411;SDS011;39307;52.870;13.660;2023-06-22T02:19:06;11.23;;;8.98;;
53411;SDS011;39307;52.870;13.660;2023-06-22T02:21:32;10.65;;;8.68;;
53411;SDS011;39307;52.870;13.660;2023-06-22T02:23:58;11.95;;;9.80;;
53411;SDS011;39307;52.870;13.660;2023-06-22T02:26:27;12.82;;;8.80;;
53411;SDS011;39307;52.870;13.660;2023-06-22T02:28:54;11.38;;;8.90;;
53411;SDS011;39307;52.870;13.660;2023-06-22T02:31:20;12.35;;;9.27;;
53411;SDS011;39307;52.870;13.660;2023-06-22T02:33:46;11.73;;;9.23;;
53411;SDS011;39307;52.870;13.660;2023-06-22T02:36:13;11.30;;;8.98;;
53411;SDS011;39307;52.870;13.660;2023-06-22T02:38:42;12.98;;;9.82;;
53411;SDS011;39307;52.870;13.660;2023-06-22T02:41:09;12.15;;;9.00;;
53411;SDS011;39307;52.870;13.660;2023-06-22T02:43:35;11.60;;;9.25;;
53411;SDS011;39307;52.870;13.660;2023-06-22T02:46:01;10.18;;;8.55;;
53411;SDS011;39307;52.870;13.660;2023-06-22T02:48:28;11.30;;;8.85;;
53411;SDS011;39307;52.870;13.660;2023-06-22T02:50:54;12.13;;;9.52;;
53411;SDS011;39307;52.870;13.660;2023-06-22T02:53:20;10.98;;;8.45;;
53411;SDS011;39307;52.870;13.660;2023-06-22T02:55:46;10.90;;;8.63;;
53411;SDS011;39307;52.870;13.660;2023-06-22T02:58:12;10.50;;;8.65;;
53411;SDS011;39307;52.870;13.660;2023-06-22T03:00:38;11.65;;;9.20;;
53411;SDS011;39307;52.870;13.660;2023-06-22T03:03:04;11.18;;;8.90;;
53411;SDS011;39307;52.870;13.660;2023-06-22T03:05:30;13.77;;;9.37;;
53411;SDS011;39307;52.870;13.660;2023-06-22T03:07:57;10.63;;;8.77;;
53411;SDS011;39307;52.870;13.660;2023-06-22T03:10:23;10.80;;;8.80;;
53411;SDS011;39307;52.870;13.660;2023-06-22T03:12:49;11.40;;;9.03;;
53411;SDS011;39307;52.870;13.660;2023-06-22T03:15:15;10.35;;;8.00;;
53411;SDS011;39307;52.870;13.660;2023-06-22T03:17:42;10.73;;;8.48;;
53411;SDS011;39307;52.870;13.660;2023-06-22T03:20:08;12.57;;;8.30;;
53411;SDS011;39307;52.870;13.660;2023-06-22T03:22:35;9.95;;;7.43;;
53411;SDS011;39307;52.870;13.660;2023-06-22T03:25:02;12.60;;;8.57;;
53411;SDS011;39307;52.870;13.660;2023-06-22T03:27:29;10.65;;;7.60;;
53411;SDS011;39307;52.870;13.660;2023-06-22T03:29:56;10.73;;;8.17;;
53411;SDS011;39307;52.870;13.660;2023-06-22T03:32:23;11.10;;;7.80;;
53411;SDS011;39307;52.870;13.660;2023-06-22T03:34:49;10.70;;;8.15;;
53411;SDS011;39307;52.870;13.660;2023-06-22T03:37:15;10.18;;;8.27;;
53411;SDS011;39307;52.870;13.660;2023-06-22T03:39:41;11.38;;;8.57;;
53411;SDS011;39307;52.870;13.660;2023-06-22T03:42:08;12.20;;;9.33;;
53411;SDS011;39307;52.870;13.660;2023-06-22T03:44:35;10.95;;;8.77;;
53411;SDS011;39307;52.870;13.660;2023-06-22T03:47:01;10.43;;;8.60;;
53411;SDS011;39307;52.870;13.660;2023-06-22T03:49:29;10.23;;;8.48;;
53411;SDS011;39307;52.870;13.660;2023-06-22T03:51:55;9.15;;;7.65;;
53411;SDS011;39307;52.870;13.660;2023-06-22T03:54:21;10.70;;;7.90;;
53411;SDS011;39307;52.870;13.660;2023-06-22T03:56:47;10.27;;;8.57;;
53411;SDS011;39307;52.870;13.660;2023-06-22T03:59:14;9.63;;;7.90;;
53411;SDS011;39307;52.870;13.660;2023-06-22T04:01:40;11.13;;;8.67;;
53411;SDS011;39307;52.870;13.660;2023-06-22T04:04:06;10.23;;;7.60;;
53411;SDS011;39307;52.870;13.660;2023-06-22T04:06:32;9.63;;;7.93;;
53411;SDS011;39307;52.870;13.660;2023-06-22T04:08:59;9.90;;;8.43;;
53411;SDS011;39307;52.870;13.660;2023-06-22T04:11:25;10.90;;;7.97;;
53411;SDS011;39307;52.870;13.660;2023-06-22T04:13:52;9.30;;;8.00;;
53411;SDS011;39307;52.870;13.660;2023-06-22T04:16:18;10.63;;;8.23;;
53411;SDS011;39307;52.870;13.660;2023-06-22T04:18:44;10.15;;;8.10;;
53411;SDS011;39307;52.870;13.660;2023-06-22T04:21:10;11.82;;;8.20;;
53411;SDS011;39307;52.870;13.660;2023-06-22T04:23:36;9.57;;;8.18;;
53411;SDS011;39307;52.870;13.660;2023-06-22T04:26:03;10.85;;;8.20;;
53411;SDS011;39307;52.870;13.660;2023-06-22T04:28:29;13.23;;;8.27;;
53411;SDS011;39307;52.870;13.660;2023-06-22T04:30:55;9.75;;;7.93;;
53411;SDS011;39307;52.870;13.660;2023-06-22T04:33:21;10.50;;;8.60;;
53411;SDS011;39307;52.870;13.660;2023-06-22T04:35:48;9.60;;;7.97;;
53411;SDS011;39307;52.870;13.660;2023-06-22T04:38:15;12.10;;;8.20;;
53411;SDS011;39307;52.870;13.660;2023-06-22T04:40:41;10.27;;;8.30;;
53411;SDS011;39307;52.870;13.660;2023-06-22T04:43:07;11.77;;;8.80;;
53411;SDS011;39307;52.870;13.660;2023-06-22T04:45:33;11.57;;;9.48;;
53411;SDS011;39307;52.870;13.660;2023-06-22T04:48:00;43.17;;;33.28;;
53411;SDS011;39307;52.870;13.660;2023-06-22T04:50:26;16.38;;;13.15;;
53411;SDS011;39307;52.870;13.660;2023-06-22T04:52:52;13.43;;;9.38;;
53411;SDS011;39307;52.870;13.660;2023-06-22T04:55:18;11.33;;;8.30;;
53411;SDS011;39307;52.870;13.660;2023-06-22T04:57:45;10.85;;;8.70;;
53411;SDS011;39307;52.870;13.660;2023-06-22T05:00:11;9.93;;;8.43;;
53411;SDS011;39307;52.870;13.660;2023-06-22T05:02:38;9.88;;;7.93;;
53411;SDS011;39307;52.870;13.660;2023-06-22T05:05:05;9.73;;;8.45;;
53411;SDS011;39307;52.870;13.660;2023-06-22T05:07:31;12.83;;;9.47;;
53411;SDS011;39307;52.870;13.660;2023-06-22T05:09:58;12.98;;;10.77;;
53411;SDS011;39307;52.870;13.660;2023-06-22T05:12:25;11.75;;;9.30;;
53411;SDS011;39307;52.870;13.660;2023-06-22T05:14:51;11.73;;;9.10;;
53411;SDS011;39307;52.870;13.660;2023-06-22T05:17:17;12.70;;;9.05;;
53411;SDS011;39307;52.870;13.660;2023-06-22T05:19:43;11.10;;;9.20;;
53411;SDS011;39307;52.870;13.660;2023-06-22T05:22:10;12.60;;;8.90;;
53411;SDS011;39307;52.870;13.660;2023-06-22T05:24:36;11.48;;;8.77;;
53411;SDS011;39307;52.870;13.660;2023-06-22T05:27:02;9.52;;;8.07;;
53411;SDS011;39307;52.870;13.660;2023-06-22T05:29:28;10.82;;;8.52;;
53411;SDS011;39307;52.870;13.660;2023-06-22T05:31:55;10.93;;;8.75;;
53411;SDS011;39307;52.870;13.660;2023-06-22T05:34:21;12.27;;;9.40;;
53411;SDS011;39307;52.870;13.660;2023-06-22T05:36:47;11.82;;;8.80;;
53411;SDS011;39307;52.870;13.660;2023-06-22T05:39:14;13.88;;;10.60;;
53411;SDS011;39307;52.870;13.660;2023-06-22T05:41:41;12.60;;;9.10;;
53411;SDS011;39307;52.870;13.660;2023-06-22T05:44:07;12.27;;;10.30;;
53411;SDS011;39307;52.870;13.660;2023-06-22T05:46:34;12.18;;;9.32;;
53411;SDS011;39307;52.870;13.660;2023-06-22T05:49:00;11.82;;;8.93;;
53411;SDS011;39307;52.870;13.660;2023-06-22T05:51:27;14.73;;;10.75;;
53411;SDS011;39307;52.870;13.660;2023-06-22T05:53:53;16.55;;;12.40;;
53411;SDS011;39307;52.870;13.660;2023-06-22T05:56:19;15.07;;;10.95;;
53411;SDS011;39307;52.870;13.660;2023-06-22T05:58:46;15.50;;;12.68;;
53411;SDS011;39307;52.870;13.660;2023-06-22T06:01:12;15.43;;;12.02;;
53411;SDS011;39307;52.870;13.660;2023-06-22T06:03:38;14.90;;;11.02;;
53411;SDS011;39307;52.870;13.660;2023-06-22T06:06:05;15.13;;;10.98;;
53411;SDS011;39307;52.870;13.660;2023-06-22T06:08:31;11.35;;;9.80;;
53411;SDS011;39307;52.870;13.660;2023-06-22T06:10:57;13.18;;;10.40;;
53411;SDS011;39307;52.870;13.660;2023-06-22T06:13:23;12.18;;;10.35;;
53411;SDS011;39307;52.870;13.660;2023-06-22T06:15:50;12.95;;;9.75;;
53411;SDS011;39307;52.870;13.660;2023-06-22T06:18:16;12.48;;;9.90;;
53411;SDS011;39307;52.870;13.660;2023-06-22T06:20:42;11.07;;;8.33;;
53411;SDS011;39307;52.870;13.660;2023-06-22T06:23:08;10.30;;;8.17;;
53411;SDS011;39307;52.870;13.660;2023-06-22T06:25:35;12.67;;;7.97;;
53411;SDS011;39307;52.870;13.660;2023-06-22T06:28:01;10.85;;;6.93;;
53411;SDS011;39307;52.870;13.660;2023-06-22T06:30:29;9.13;;;6.53;;
53411;SDS011;39307;52.870;13.660;2023-06-22T06:32:56;9.68;;;6.00;;
53411;SDS011;39307;52.870;13.660;2023-06-22T06:35:23;8.87;;;6.03;;
53411;SDS011;39307;52.870;13.660;2023-06-22T06:37:50;7.82;;;5.70;;
53411;SDS011;39307;52.870;13.660;2023-06-22T06:40:17;8.67;;;5.83;;
53411;SDS011;39307;52.870;13.660;2023-06-22T06:42:44;7.90;;;5.60;;
53411;SDS011;39307;52.870;13.660;2023-06-22T06:45:12;7.85;;;5.45;;
53411;SDS011;39307;52.870;13.660;2023-06-22T06:47:43;7.65;;;5.30;;
53411;SDS011;39307;52.870;13.660;2023-06-22T06:50:10;7.45;;;4.85;;
53411;SDS011;39307;52.870;13.660;2023-06-22T06:52:36;6.80;;;4.47;;
53411;SDS011;39307;52.870;13.660;2023-06-22T06:55:03;7.57;;;4.72;;
53411;SDS011;39307;52.870;13.660;2023-06-22T06:57:30;6.63;;;4.85;;
53411;SDS011;39307;52.870;13.660;2023-06-22T06:59:57;7.00;;;4.80;;
53411;SDS011;39307;52.870;13.660;2023-06-22T07:02:24;8.35;;;5.13;;
53411;SDS011;39307;52.870;13.660;2023-06-22T07:04:50;7.43;;;4.82;;
53411;SDS011;39307;52.870;13.660;2023-06-22T07:07:17;9.80;;;4.53;;
53411;SDS011;39307;52.870;13.660;2023-06-22T07:09:43;6.07;;;3.87;;
53411;SDS011;39307;52.870;13.660;2023-06-22T07:12:09;6.72;;;4.00;;
53411;SDS011;39307;52.870;13.660;2023-06-22T07:14:35;6.78;;;4.13;;
53411;SDS011;39307;52.870;13.660;2023-06-22T07:17:01;7.07;;;3.77;;
53411;SDS011;39307;52.870;13.660;2023-06-22T07:19:28;5.83;;;3.50;;
53411;SDS011;39307;52.870;13.660;2023-06-22T07:21:54;6.20;;;3.60;;
53411;SDS011;39307;52.870;13.660;2023-06-22T07:24:21;7.78;;;4.20;;
53411;SDS011;39307;52.870;13.660;2023-06-22T07:26:47;7.35;;;4.00;;
53411;SDS011;39307;52.870;13.660;2023-06-22T07:29:14;6.82;;;3.63;;
53411;SDS011;39307;52.870;13.660;2023-06-22T07:31:40;7.57;;;4.03;;
53411;SDS011;39307;52.870;13.660;2023-06-22T07:34:07;7.57;;;4.20;;
53411;SDS011;39307;52.870;13.660;2023-06-22T07:36:33;6.15;;;3.70;;
53411;SDS011;39307;52.870;13.660;2023-06-22T07:38:59;6.40;;;3.88;;
53411;SDS011;39307;52.870;13.660;2023-06-22T07:41:26;7.68;;;4.68;;
53411;SDS011;39307;52.870;13.660;2023-06-22T07:43:52;7.50;;;4.00;;
53411;SDS011;39307;52.870;13.660;2023-06-22T07:46:18;6.60;;;3.85;;
53411;SDS011;39307;52.870;13.660;2023-06-22T07:48:44;6.43;;;3.70;;
53411;SDS011;39307;52.870;13.660;2023-06-22T07:51:11;5.65;;;3.38;;
53411;SDS011;39307;52.870;13.660;2023-06-22T07:53:37;5.97;;;3.25;;
53411;SDS011;39307;52.870;13.660;2023-06-22T07:56:03;5.38;;;2.97;;
53411;SDS011;39307;52.870;13.660;2023-06-22T07:58:29;5.07;;;2.55;;
53411;SDS011;39307;52.870;13.660;2023-06-22T08:00:56;6.68;;;2.80;;
53411;SDS011;39307;52.870;13.660;2023-06-22T08:03:23;5.95;;;3.05;;
53411;SDS011;39307;52.870;13.660;2023-06-22T08:05:49;5.63;;;2.80;;
53411;SDS011;39307;52.870;13.660;2023-06-22T08:08:15;4.68;;;2.70;;
53411;SDS011;39307;52.870;13.660;2023-06-22T08:10:41;6.50;;;2.90;;
53411;SDS011;39307;52.870;13.660;2023-06-22T08:13:08;9.75;;;5.90;;
53411;SDS011;39307;52.870;13.660;2023-06-22T08:15:34;5.60;;;2.67;;
53411;SDS011;39307;52.870;13.660;2023-06-22T08:18:00;5.93;;;2.75;;
53411;SDS011;39307;52.870;13.660;2023-06-22T08:20:26;4.70;;;2.78;;
53411;SDS011;39307;52.870;13.660;2023-06-22T08:22:53;5.18;;;2.78;;
53411;SDS011;39307;52.870;13.660;2023-06-22T08:25:20;11.73;;;6.75;;
53411;SDS011;39307;52.870;13.660;2023-06-22T08:27:47;4.60;;;2.50;;
53411;SDS011;39307;52.870;13.660;2023-06-22T08:30:13;4.80;;;2.80;;
53411;SDS011;39307;52.870;13.660;2023-06-22T08:32:40;5.65;;;2.38;;
53411;SDS011;39307;52.870;13.660;2023-06-22T08:35:07;3.88;;;2.38;;
53411;SDS011;39307;52.870;13.660;2023-06-22T08:37:33;4.55;;;2.50;;
53411;SDS011;39307;52.870;13.660;2023-06-22T08:40:00;4.05;;;2.30;;
53411;SDS011;39307;52.870;13.660;2023-06-22T08:42:27;4.10;;;2.53;;
53411;SDS011;39307;52.870;13.660;2023-06-22T08:44:53;4.90;;;2.25;;
53411;SDS011;39307;52.870;13.660;2023-06-22T08:47:20;6.38;;;2.92;;
53411;SDS011;39307;52.870;13.660;2023-06-22T08:49:46;5.03;;;2.55;;
53411;SDS011;39307;52.870;13.660;2023-06-22T08:52:13;4.90;;;2.53;;
53411;SDS011;39307;52.870;13.660;2023-06-22T08:54:39;5.00;;;2.45;;
53411;SDS011;39307;52.870;13.660;2023-06-22T08:57:06;4.43;;;2.40;;
53411;SDS011;39307;52.870;13.660;2023-06-22T08:59:32;5.80;;;2.60;;
53411;SDS011;39307;52.870;13.660;2023-06-22T09:01:58;6.10;;;2.53;;
53411;SDS011;39307;52.870;13.660;2023-06-22T09:04:25;4.70;;;2.47;;
53411;SDS011;39307;52.870;13.660;2023-06-22T09:06:52;3.95;;;2.20;;
53411;SDS011;39307;52.870;13.660;2023-06-22T09:09:20;4.80;;;2.30;;
53411;SDS011;39307;52.870;13.660;2023-06-22T09:11:47;5.22;;;2.70;;
53411;SDS011;39307;52.870;13.660;2023-06-22T09:14:13;5.35;;;2.47;;
53411;SDS011;39307;52.870;13.660;2023-06-22T09:16:39;6.10;;;2.70;;
53411;SDS011;39307;52.870;13.660;2023-06-22T09:19:06;4.90;;;2.70;;
53411;SDS011;39307;52.870;13.660;2023-06-22T09:21:33;4.75;;;2.47;;
53411;SDS011;39307;52.870;13.660;2023-06-22T09:23:59;5.85;;;2.85;;
53411;SDS011;39307;52.870;13.660;2023-06-22T09:26:25;3.88;;;2.60;;
53411;SDS011;39307;52.870;13.660;2023-06-22T09:28:52;4.37;;;2.70;;
53411;SDS011;39307;52.870;13.660;2023-06-22T09:31:18;4.57;;;2.60;;
53411;SDS011;39307;52.870;13.660;2023-06-22T09:33:44;5.35;;;2.88;;
53411;SDS011;39307;52.870;13.660;2023-06-22T09:36:10;4.82;;;3.05;;
53411;SDS011;39307;52.870;13.660;2023-06-22T09:38:37;4.22;;;2.60;;
53411;SDS011;39307;52.870;13.660;2023-06-22T09:41:03;4.75;;;2.88;;
53411;SDS011;39307;52.870;13.660;2023-06-22T09:43:30;4.82;;;2.70;;
53411;SDS011;39307;52.870;13.660;2023-06-22T09:45:58;4.57;;;2.50;;
53411;SDS011;39307;52.870;13.660;2023-06-22T09:48:24;4.68;;;2.63;;
53411;SDS011;39307;52.870;13.660;2023-06-22T09:50:50;5.47;;;2.55;;
53411;SDS011;39307;52.870;13.660;2023-06-22T09:53:16;4.90;;;2.58;;
53411;SDS011;39307;52.870;13.660;2023-06-22T09:55:42;5.20;;;2.60;;
53411;SDS011;39307;52.870;13.660;2023-06-22T09:58:09;5.10;;;2.72;;
53411;SDS011;39307;52.870;13.660;2023-06-22T10:00:35;3.97;;;2.42;;
53411;SDS011;39307;52.870;13.660;2023-06-22T10:03:01;5.43;;;2.92;;
53411;SDS011;39307;52.870;13.660;2023-06-22T10:05:28;5.87;;;2.87;;
53411;SDS011;39307;52.870;13.660;2023-06-22T10:07:54;4.72;;;2.70;;
53411;SDS011;39307;52.870;13.660;2023-06-22T10:10:20;5.15;;;2.60;;
53411;SDS011;39307;52.870;13.660;2023-06-22T10:12:47;5.47;;;2.65;;
53411;SDS011;39307;52.870;13.660;2023-06-22T10:15:22;5.00;;;2.80;;
53411;SDS011;39307;52.870;13.660;2023-06-22T10:17:48;4.70;;;2.78;;
53411;SDS011;39307;52.870;13.660;2023-06-22T10:20:15;4.60;;;2.80;;
53411;SDS011;39307;52.870;13.660;2023-06-22T10:22:42;6.13;;;3.30;;
53411;SDS011;39307;52.870;13.660;2023-06-22T10:25:09;5.55;;;3.05;;
53411;SDS011;39307;52.870;13.660;2023-06-22T10:27:36;5.75;;;3.00;;
53411;SDS011;39307;52.870;13.660;2023-06-22T10:30:03;5.15;;;2.78;;
53411;SDS011;39307;52.870;13.660;2023-06-22T10:32:29;5.22;;;2.83;;
53411;SDS011;39307;52.870;13.660;2023-06-22T10:34:55;4.82;;;2.70;;
53411;SDS011;39307;52.870;13.660;2023-06-22T10:37:22;4.70;;;2.83;;
53411;SDS011;39307;52.870;13.660;2023-06-22T10:39:48;4.82;;;2.70;;
53411;SDS011;39307;52.870;13.660;2023-06-22T10:42:14;4.85;;;2.97;;
53411;SDS011;39307;52.870;13.660;2023-06-22T10:44:40;5.43;;;3.00;;
53411;SDS011;39307;52.870;13.660;2023-06-22T10:47:07;4.75;;;2.80;;
53411;SDS011;39307;52.870;13.660;2023-06-22T10:49:33;5.43;;;3.00;;
53411;SDS011;39307;52.870;13.660;2023-06-22T10:51:59;4.95;;;3.08;;
53411;SDS011;39307;52.870;13.660;2023-06-22T10:54:25;5.40;;;3.20;;
53411;SDS011;39307;52.870;13.660;2023-06-22T10:56:51;4.93;;;3.00;;
53411;SDS011;39307;52.870;13.660;2023-06-22T10:59:18;4.95;;;2.88;;
53411;SDS011;39307;52.870;13.660;2023-06-22T11:01:44;6.30;;;2.90;;
53411;SDS011;39307;52.870;13.660;2023-06-22T11:04:10;5.25;;;2.85;;
53411;SDS011;39307;52.870;13.660;2023-06-22T11:06:37;5.22;;;2.92;;
53411;SDS011;39307;52.870;13.660;2023-06-22T11:09:03;5.07;;;3.00;;
53411;SDS011;39307;52.870;13.660;2023-06-22T11:11:29;4.97;;;2.95;;
53411;SDS011;39307;52.870;13.660;2023-06-22T11:13:55;6.68;;;3.08;;
53411;SDS011;39307;52.870;13.660;2023-06-22T11:16:21;6.05;;;3.20;;
53411;SDS011;39307;52.870;13.660;2023-06-22T11:18:47;5.10;;;2.70;;
53411;SDS011;39307;52.870;13.660;2023-06-22T11:21:14;4.60;;;2.88;;
53411;SDS011;39307;52.870;13.660;2023-06-22T11:23:41;4.90;;;3.03;;
53411;SDS011;39307;52.870;13.660;2023-06-22T11:26:08;5.07;;;2.88;;
53411;SDS011;39307;52.870;13.660;2023-06-22T11:28:35;6.38;;;2.97;;
53411;SDS011;39307;52.870;13.660;2023-06-22T11:31:01;5.18;;;2.85;;
53411;SDS011;39307;52.870;13.660;2023-06-22T11:33:27;4.90;;;3.10;;
53411;SDS011;39307;52.870;13.660;2023-06-22T11:35:53;6.47;;;3.30;;
53411;SDS011;39307;52.870;13.660;2023-06-22T11:38:19;5.87;;;3.03;;
53411;SDS011;39307;52.870;13.660;2023-06-22T11:40:46;5.30;;;2.75;;
53411;SDS011;39307;52.870;13.660;2023-06-22T11:43:12;4.53;;;2.90;;
53411;SDS011;39307;52.870;13.660;2023-06-22T11:45:38;4.72;;;2.70;;
53411;SDS011;39307;52.870;13.660;2023-06-22T11:48:04;4.95;;;2.95;;
53411;SDS011;39307;52.870;13.660;2023-06-22T11:50:30;5.27;;;2.90;;
53411;SDS011;39307;52.870;13.660;2023-06-22T11:52:57;4.90;;;2.72;;
53411;SDS011;39307;52.870;13.660;2023-06-22T11:55:22;5.00;;;2.83;;
53411;SDS011;39307;52.870;13.660;2023-06-22T11:57:55;5.40;;;3.20;;
53411;SDS011;39307;52.870;13.660;2023-06-22T12:00:23;5.10;;;3.00;;
53411;SDS011;39307;52.870;13.660;2023-06-22T12:02:50;4.55;;;2.80;;
53411;SDS011;39307;52.870;13.660;2023-06-22T12:05:17;5.93;;;2.97;;
53411;SDS011;39307;52.870;13.660;2023-06-22T12:07:47;5.55;;;3.20;;
53411;SDS011;39307;52.870;13.660;2023-06-22T12:10:14;5.22;;;3.03;;
53411;SDS011;39307;52.870;13.660;2023-06-22T12:12:40;6.30;;;3.25;;
53411;SDS011;39307;52.870;13.660;2023-06-22T12:15:08;5.72;;;3.05;;
53411;SDS011;39307;52.870;13.660;2023-06-22T12:17:35;4.90;;;3.08;;
53411;SDS011;39307;52.870;13.660;2023-06-22T12:20:02;5.23;;;3.00;;
53411;SDS011;39307;52.870;13.660;2023-06-22T12:22:29;7.55;;;3.10;;
53411;SDS011;39307;52.870;13.660;2023-06-22T12:24:56;4.68;;;2.83;;
53411;SDS011;39307;52.870;13.660;2023-06-22T12:27:22;4.93;;;3.03;;
53411;SDS011;39307;52.870;13.660;2023-06-22T12:29:48;6.20;;;3.00;;
53411;SDS011;39307;52.870;13.660;2023-06-22T12:32:15;5.10;;;2.90;;
53411;SDS011;39307;52.870;13.660;2023-06-22T12:34:44;5.65;;;2.90;;
53411;SDS011;39307;52.870;13.660;2023-06-22T12:37:10;4.60;;;2.70;;
53411;SDS011;39307;52.870;13.660;2023-06-22T12:39:36;5.07;;;3.25;;
53411;SDS011;39307;52.870;13.660;2023-06-22T12:42:02;5.28;;;3.20;;
53411;SDS011;39307;52.870;13.660;2023-06-22T12:44:29;5.38;;;2.92;;
53411;SDS011;39307;52.870;13.660;2023-06-22T12:46:55;4.82;;;2.92;;
53411;SDS011;39307;52.870;13.660;2023-06-22T12:49:21;4.65;;;2.88;;
53411;SDS011;39307;52.870;13.660;2023-06-22T12:51:47;6.47;;;2.95;;
53411;SDS011;39307;52.870;13.660;2023-06-22T12:54:13;4.68;;;3.10;;
53411;SDS011;39307;52.870;13.660;2023-06-22T12:56:39;5.80;;;3.20;;
53411;SDS011;39307;52.870;13.660;2023-06-22T12:59:05;5.40;;;3.00;;
53411;SDS011;39307;52.870;13.660;2023-06-22T13:01:32;4.68;;;3.05;;
53411;SDS011;39307;52.870;13.660;2023-06-22T13:03:58;5.10;;;3.30;;
53411;SDS011;39307;52.870;13.660;2023-06-22T13:06:25;6.03;;;3.47;;
53411;SDS011;39307;52.870;13.660;2023-06-22T13:08:51;5.27;;;3.20;;
53411;SDS011;39307;52.870;13.660;2023-06-22T13:11:17;5.15;;;3.03;;
53411;SDS011;39307;52.870;13.660;2023-06-22T13:13:44;5.18;;;3.40;;
53411;SDS011;39307;52.870;13.660;2023-06-22T13:16:11;4.50;;;2.90;;
53411;SDS011;39307;52.870;13.660;2023-06-22T13:18:37;6.53;;;3.13;;
53411;SDS011;39307;52.870;13.660;2023-06-22T13:21:04;5.45;;;3.17;;
53411;SDS011;39307;52.870;13.660;2023-06-22T13:23:30;4.78;;;3.10;;
53411;SDS011;39307;52.870;13.660;2023-06-22T13:25:57;5.45;;;3.25;;
53411;SDS011;39307;52.870;13.660;2023-06-22T13:28:23;5.90;;;3.22;;
53411;SDS011;39307;52.870;13.660;2023-06-22T13:30:50;5.40;;;3.10;;
53411;SDS011;39307;52.870;13.660;2023-06-22T13:33:16;5.60;;;2.90;;
53411;SDS011;39307;52.870;13.660;2023-06-22T13:35:42;6.03;;;3.00;;
53411;SDS011;39307;52.870;13.660;2023-06-22T13:38:08;4.63;;;2.85;;
53411;SDS011;39307;52.870;13.660;2023-06-22T13:40:36;5.30;;;2.53;;
53411;SDS011;39307;52.870;13.660;2023-06-22T13:43:04;4.20;;;2.80;;
53411;SDS011;39307;52.870;13.660;2023-06-22T13:45:30;5.05;;;3.05;;
53411;SDS011;39307;52.870;13.660;2023-06-22T13:47:57;4.75;;;3.00;;
53411;SDS011;39307;52.870;13.660;2023-06-22T13:50:23;5.23;;;2.70;;
53411;SDS011;39307;52.870;13.660;2023-06-22T13:52:50;4.13;;;2.65;;
53411;SDS011;39307;52.870;13.660;2023-06-22T13:55:16;4.25;;;2.83;;
53411;SDS011;39307;52.870;13.660;2023-06-22T13:57:42;5.93;;;3.17;;
53411;SDS011;39307;52.870;13.660;2023-06-22T14:00:08;5.38;;;2.90;;
53411;SDS011;39307;52.870;13.660;2023-06-22T14:02:35;6.88;;;3.20;;
53411;SDS011;39307;52.870;13.660;2023-06-22T14:05:01;4.72;;;2.92;;
53411;SDS011;39307;52.870;13.660;2023-06-22T14:07:27;6.43;;;3.33;;
53411;SDS011;39307;52.870;13.660;2023-06-22T14:09:53;4.78;;;2.83;;
53411;SDS011;39307;52.870;13.660;2023-06-22T14:12:20;5.13;;;3.08;;
53411;SDS011;39307;52.870;13.660;2023-06-22T14:14:46;4.93;;;3.10;;
53411;SDS011;39307;52.870;13.660;2023-06-22T14:17:12;6.22;;;3.17;;
53411;SDS011;39307;52.870;13.660;2023-06-22T14:19:38;5.43;;;2.95;;
53411;SDS011;39307;52.870;13.660;2023-06-22T14:22:04;6.78;;;3.50;;
53411;SDS011;39307;52.870;13.660;2023-06-22T14:24:31;4.87;;;3.40;;
53411;SDS011;39307;52.870;13.660;2023-06-22T14:26:57;6.05;;;3.47;;
53411;SDS011;39307;52.870;13.660;2023-06-22T14:29:25;6.10;;;3.35;;
53411;SDS011;39307;52.870;13.660;2023-06-22T14:32:00;5.93;;;3.15;;